createdAt,value
2022-09-23T00:00:34.029Z,86.10
2022-09-23T00:01:34.090Z,86.16
2022-09-23T00:02:34.048Z,86.52
2022-09-23T00:03:34.009Z,86.52
2022-09-23T00:04:34.003Z,86.31
2022-09-23T00:05:33.984Z,87.34
2022-09-23T00:06:33.978Z,87.13
2022-09-23T00:07:33.983Z,86.55
2022-09-23T00:08:33.954Z,86.41
2022-09-23T00:09:33.952Z,86.82
2022-09-23T00:10:33.929Z,86.82
2022-09-23T00:11:33.932Z,87.34
2022-09-23T00:12:33.953Z,86.21
2022-09-23T00:13:33.918Z,86.41
2022-09-23T00:14:33.901Z,86.52
2022-09-23T00:15:33.905Z,86.52
2022-09-23T00:16:33.998Z,86.41
2022-09-23T00:17:33.877Z,86.41
2022-09-23T00:18:33.890Z,86.31
2022-09-23T00:19:33.848Z,86.61
2022-09-23T00:20:33.840Z,86.52
2022-09-23T00:21:33.855Z,86.41
2022-09-23T00:22:33.836Z,85.79
2022-09-23T00:23:33.808Z,86.10
2022-09-23T00:24:33.805Z,85.69
2022-09-23T00:25:33.812Z,85.79
2022-09-23T00:26:33.814Z,85.28
2022-09-23T00:27:33.778Z,85.69
2022-09-23T00:28:33.767Z,85.69
2022-09-23T00:29:33.749Z,84.72
2022-09-23T00:30:33.804Z,85.79
2022-09-23T00:31:33.746Z,85.69
2022-09-23T00:32:33.731Z,86.10
2022-09-23T00:33:33.728Z,86.61
2022-09-23T00:34:33.708Z,86.66
2022-09-23T00:35:33.691Z,86.35
2022-09-23T00:36:33.693Z,86.45
2022-09-23T00:37:33.660Z,86.24
2022-09-23T00:38:33.675Z,86.45
2022-09-23T00:39:33.653Z,87.17
2022-09-23T00:40:33.718Z,87.48
2022-09-23T00:41:33.659Z,87.01
2022-09-23T00:42:33.628Z,87.17
2022-09-23T00:43:33.629Z,87.38
2022-09-23T00:44:33.608Z,87.07
2022-09-23T00:45:33.609Z,86.76
2022-09-23T00:46:33.713Z,86.55
2022-09-23T00:47:33.581Z,86.35
2022-09-23T00:48:33.565Z,86.24
2022-09-23T00:49:33.547Z,85.94
2022-09-23T00:50:33.564Z,86.55
2022-09-23T00:51:33.539Z,86.45
2022-09-23T00:52:33.519Z,86.55
2022-09-23T00:53:33.544Z,86.60
2022-09-23T00:54:33.526Z,86.66
2022-09-23T00:55:33.522Z,86.49
2022-09-23T00:56:33.477Z,86.39
2022-09-23T00:57:33.482Z,87.11
2022-09-23T00:58:33.481Z,86.90
2022-09-23T00:59:33.485Z,87.42
2022-09-23T01:00:33.475Z,87.83
2022-09-23T01:01:33.516Z,87.56
2022-09-23T01:02:33.531Z,87.11
2022-09-23T01:03:33.427Z,87.01
2022-09-23T01:04:33.423Z,87.42
2022-09-23T01:05:33.425Z,87.87
2022-09-23T01:06:33.396Z,87.73
2022-09-23T01:07:33.391Z,87.56
2022-09-23T01:08:33.378Z,87.63
2022-09-23T01:09:33.363Z,87.83
2022-09-23T01:10:33.350Z,87.73
2022-09-23T01:11:33.368Z,87.35
2022-09-23T01:12:33.341Z,87.21
2022-09-23T01:13:33.328Z,87.66
2022-09-23T01:14:33.317Z,87.32
2022-09-23T01:15:33.317Z,87.11
2022-09-23T01:16:33.417Z,87.83
2022-09-23T01:17:33.299Z,87.11
2022-09-23T01:18:33.272Z,86.53
2022-09-23T01:19:33.275Z,86.63
2022-09-23T01:20:33.282Z,86.60
2022-09-23T01:21:33.245Z,86.53
2022-09-23T01:22:33.252Z,86.22
2022-09-23T01:23:33.229Z,86.53
2022-09-23T01:24:33.242Z,86.53
2022-09-23T01:25:33.232Z,86.74
2022-09-23T01:26:33.202Z,87.46
2022-09-23T01:27:33.194Z,87.81
2022-09-23T01:28:33.197Z,87.50
2022-09-23T01:29:33.209Z,87.60
2022-09-23T01:30:33.208Z,87.60
2022-09-23T01:31:33.151Z,87.29
2022-09-23T01:32:33.138Z,87.50
2022-09-23T01:33:33.137Z,87.29
2022-09-23T01:34:33.143Z,87.60
2022-09-23T01:35:33.116Z,87.60
2022-09-23T01:36:33.115Z,87.71
2022-09-23T01:37:33.102Z,87.50
2022-09-23T01:38:33.109Z,87.50
2022-09-23T01:39:33.085Z,87.50
2022-09-23T01:40:33.111Z,87.60
2022-09-23T01:41:33.047Z,87.40
2022-09-23T01:42:33.054Z,87.29
2022-09-23T01:43:33.057Z,87.50
2022-09-23T01:44:33.042Z,87.60
2022-09-23T01:45:33.048Z,87.50
2022-09-23T01:46:33.022Z,87.60
2022-09-23T01:47:33.005Z,88.32
2022-09-23T01:48:33.104Z,88.22
2022-09-23T01:49:32.999Z,88.32
2022-09-23T01:50:32.982Z,88.53
2022-09-23T01:51:32.959Z,88.08
2022-09-23T01:52:32.984Z,87.60
2022-09-23T01:53:32.942Z,87.71
2022-09-23T01:54:32.936Z,87.87
2022-09-23T01:55:32.927Z,87.15
2022-09-23T01:57:04.807Z,87.29
2022-09-23T01:57:32.920Z,88.02
2022-09-23T01:58:32.882Z,87.50
2022-09-23T01:59:32.900Z,87.71
2022-09-23T02:00:32.882Z,87.60
2022-09-23T02:01:32.919Z,87.40
2022-09-23T02:02:32.892Z,87.40
2022-09-23T02:03:32.854Z,87.81
2022-09-23T02:04:32.828Z,88.12
2022-09-23T02:05:32.811Z,88.02
2022-09-23T02:06:32.824Z,88.02
2022-09-23T02:07:32.806Z,88.26
2022-09-23T02:08:32.796Z,88.43
2022-09-23T02:09:32.785Z,87.71
2022-09-23T02:10:32.759Z,87.65
2022-09-23T02:11:33.781Z,88.06
2022-09-23T02:12:32.755Z,87.95
2022-09-23T02:13:32.754Z,88.26
2022-09-23T02:14:32.745Z,88.16
2022-09-23T02:15:32.722Z,88.37
2022-09-23T02:16:32.760Z,87.85
2022-09-23T02:17:32.701Z,87.74
2022-09-23T02:18:32.686Z,87.74
2022-09-23T02:19:32.692Z,88.10
2022-09-23T02:20:32.671Z,88.37
2022-09-23T02:21:32.665Z,88.37
2022-09-23T02:22:32.665Z,88.61
2022-09-23T02:23:32.626Z,88.47
2022-09-23T02:24:32.636Z,88.47
2022-09-23T02:25:32.641Z,88.37
2022-09-23T02:26:32.611Z,88.61
2022-09-23T02:27:32.600Z,88.31
2022-09-23T02:28:32.590Z,88.68
2022-09-23T02:29:32.586Z,88.37
2022-09-23T02:30:32.585Z,88.47
2022-09-23T02:31:32.624Z,88.37
2022-09-23T02:32:32.551Z,88.53
2022-09-23T02:33:32.542Z,88.89
2022-09-23T02:34:32.559Z,88.57
2022-09-23T02:35:32.534Z,88.68
2022-09-23T02:36:32.546Z,88.53
2022-09-23T02:37:32.510Z,88.32
2022-09-23T02:38:32.502Z,88.37
2022-09-23T02:39:32.492Z,88.06
2022-09-23T02:40:32.532Z,88.68
2022-09-23T02:41:32.471Z,88.43
2022-09-23T02:42:32.456Z,88.57
2022-09-23T02:43:32.474Z,89.40
2022-09-23T02:44:32.450Z,89.92
2022-09-23T02:45:32.471Z,89.71
2022-09-23T02:46:32.422Z,90.43
2022-09-23T02:47:32.418Z,89.25
2022-09-23T02:48:32.435Z,89.98
2022-09-23T02:49:32.399Z,89.36
2022-09-23T02:50:32.385Z,89.67
2022-09-23T02:51:32.387Z,89.77
2022-09-23T02:52:32.389Z,89.77
2022-09-23T02:53:32.365Z,89.56
2022-09-23T02:54:32.377Z,89.46
2022-09-23T02:55:32.395Z,89.56
2022-09-23T02:56:33.336Z,89.98
2022-09-23T02:57:32.325Z,89.25
2022-09-23T02:58:32.353Z,89.05
2022-09-23T02:59:32.321Z,88.95
2022-09-23T03:00:32.287Z,89.25
2022-09-23T03:01:32.365Z,88.95
2022-09-23T03:02:32.293Z,89.36
2022-09-23T03:03:32.262Z,89.05
2022-09-23T03:04:32.269Z,89.42
2022-09-23T03:05:32.242Z,89.56
2022-09-23T03:06:32.249Z,89.25
2022-09-23T03:07:32.234Z,89.01
2022-09-23T03:08:32.218Z,89.22
2022-09-23T03:09:32.244Z,89.11
2022-09-23T03:10:32.203Z,89.77
2022-09-23T03:11:32.184Z,89.11
2022-09-23T03:12:32.185Z,89.73
2022-09-23T03:13:32.160Z,90.04
2022-09-23T03:14:32.163Z,89.62
2022-09-23T03:15:32.174Z,90.49
2022-09-23T03:16:32.177Z,90.25
2022-09-23T03:17:32.140Z,90.35
2022-09-23T03:18:32.154Z,90.55
2022-09-23T03:19:32.119Z,90.14
2022-09-23T03:20:32.104Z,90.59
2022-09-23T03:21:32.102Z,90.04
2022-09-23T03:22:32.087Z,90.25
2022-09-23T03:23:32.081Z,89.83
2022-09-23T03:24:32.098Z,90.45
2022-09-23T03:25:32.058Z,90.28
2022-09-23T03:26:32.046Z,90.39
2022-09-23T03:27:32.036Z,90.70
2022-09-23T03:28:32.026Z,90.19
2022-09-23T03:29:32.025Z,91.11
2022-09-23T03:30:32.000Z,90.91
2022-09-23T03:31:32.022Z,90.14
2022-09-23T03:32:31.987Z,90.04
2022-09-23T03:33:32.034Z,90.97
2022-09-23T03:34:31.968Z,89.94
2022-09-23T03:35:31.962Z,90.25
2022-09-23T03:36:31.948Z,89.73
2022-09-23T03:37:31.945Z,90.25
2022-09-23T03:38:31.955Z,89.52
2022-09-23T03:39:31.914Z,89.62
2022-09-23T03:40:31.967Z,89.42
2022-09-23T03:41:31.906Z,89.87
2022-09-23T03:42:31.892Z,90.49
2022-09-23T03:43:35.207Z,90.49
2022-09-23T03:44:31.903Z,91.01
2022-09-23T03:45:31.886Z,91.11
2022-09-23T03:46:31.852Z,91.01
2022-09-23T03:47:31.854Z,90.86
2022-09-23T03:48:31.851Z,91.42
2022-09-23T03:49:31.819Z,90.66
2022-09-23T03:50:32.815Z,90.55
2022-09-23T03:51:31.809Z,90.45
2022-09-23T03:52:31.801Z,90.28
2022-09-23T03:53:31.816Z,90.45
2022-09-23T03:54:31.783Z,90.39
2022-09-23T03:55:31.767Z,90.19
2022-09-23T03:56:31.752Z,90.39
2022-09-23T03:57:31.745Z,90.39
2022-09-23T03:58:31.758Z,90.70
2022-09-23T03:59:31.730Z,90.08
2022-09-23T04:00:31.739Z,90.49
2022-09-23T04:01:31.728Z,90.49
2022-09-23T04:02:31.728Z,90.28
2022-09-23T04:03:31.699Z,91.01
2022-09-23T04:04:31.689Z,90.91
2022-09-23T04:05:31.684Z,90.59
2022-09-23T04:06:31.689Z,90.28
2022-09-23T04:07:31.683Z,90.28
2022-09-23T04:08:31.649Z,90.14
2022-09-23T04:09:31.643Z,90.49
2022-09-23T04:10:31.628Z,90.45
2022-09-23T04:11:31.618Z,90.39
2022-09-23T04:12:31.618Z,90.25
2022-09-23T04:13:31.590Z,89.73
2022-09-23T04:14:31.581Z,89.62
2022-09-23T04:15:31.568Z,89.52
2022-09-23T04:16:31.640Z,89.94
2022-09-23T04:17:31.555Z,90.25
2022-09-23T04:18:31.565Z,89.42
2022-09-23T04:19:31.546Z,89.52
2022-09-23T04:20:31.517Z,89.11
2022-09-23T04:21:31.513Z,89.46
2022-09-23T04:22:31.500Z,89.98
2022-09-23T04:23:31.516Z,90.08
2022-09-23T04:24:31.496Z,89.87
2022-09-23T04:25:31.504Z,90.08
2022-09-23T04:26:31.469Z,90.33
2022-09-23T04:27:36.834Z,90.95
2022-09-23T04:28:33.465Z,91.52
2022-09-23T04:29:31.452Z,91.73
2022-09-23T04:30:31.446Z,91.22
2022-09-23T04:31:31.499Z,90.80
2022-09-23T04:32:31.415Z,91.01
2022-09-23T04:33:31.409Z,90.91
2022-09-23T04:34:31.401Z,90.28
2022-09-23T04:35:31.397Z,90.19
2022-09-23T04:36:31.395Z,90.28
2022-09-23T04:37:31.376Z,91.01
2022-09-23T04:38:31.359Z,91.22
2022-09-23T04:39:31.353Z,91.52
2022-09-23T04:40:31.399Z,91.42
2022-09-23T04:41:31.341Z,91.32
2022-09-23T04:42:31.326Z,91.63
2022-09-23T04:43:31.324Z,91.56
2022-09-23T04:44:31.310Z,91.46
2022-09-23T04:45:31.300Z,92.04
2022-09-23T04:46:31.316Z,92.46
2022-09-23T04:47:31.298Z,92.29
2022-09-23T04:48:31.255Z,91.88
2022-09-23T04:49:31.248Z,92.08
2022-09-23T04:50:31.257Z,92.25
2022-09-23T04:51:31.246Z,92.14
2022-09-23T04:52:31.249Z,91.94
2022-09-23T04:53:31.218Z,91.42
2022-09-23T04:54:31.203Z,91.17
2022-09-23T04:55:31.202Z,91.17
2022-09-23T04:56:31.188Z,90.76
2022-09-23T04:57:31.199Z,91.17
2022-09-23T04:58:31.166Z,90.70
2022-09-23T04:59:31.157Z,90.28
2022-09-23T05:00:31.182Z,90.19
2022-09-23T05:01:31.245Z,90.59
2022-09-23T05:02:31.208Z,90.70
2022-09-23T05:03:31.119Z,91.01
2022-09-23T05:04:31.105Z,91.11
2022-09-23T05:05:31.098Z,91.52
2022-09-23T05:06:31.107Z,91.32
2022-09-23T05:07:31.089Z,91.32
2022-09-23T05:08:31.067Z,91.32
2022-09-23T05:09:31.053Z,91.01
2022-09-23T05:10:31.055Z,90.39
2022-09-23T05:11:31.063Z,90.70
2022-09-23T05:12:31.031Z,90.80
2022-09-23T05:13:31.015Z,91.42
2022-09-23T05:14:31.012Z,91.11
2022-09-23T05:15:30.997Z,90.91
2022-09-23T05:16:31.137Z,90.70
2022-09-23T05:17:30.983Z,90.91
2022-09-23T05:18:30.993Z,90.49
2022-09-23T05:19:30.970Z,90.39
2022-09-23T05:20:30.953Z,91.11
2022-09-23T05:21:30.945Z,90.28
2022-09-23T05:22:30.927Z,90.91
2022-09-23T05:23:30.963Z,91.22
2022-09-23T05:24:30.902Z,91.52
2022-09-23T05:25:34.050Z,91.52
2022-09-23T05:26:30.904Z,91.42
2022-09-23T05:27:30.871Z,91.73
2022-09-23T05:28:32.890Z,91.83
2022-09-23T05:29:30.865Z,91.52
2022-09-23T05:30:30.855Z,91.52
2022-09-23T05:31:30.918Z,91.22
2022-09-23T05:32:30.856Z,91.32
2022-09-23T05:33:30.812Z,91.32
2022-09-23T05:34:31.814Z,91.56
2022-09-23T05:35:30.801Z,91.56
2022-09-23T05:36:35.584Z,91.77
2022-09-23T05:37:32.796Z,91.67
2022-09-23T05:38:30.775Z,91.98
2022-09-23T05:39:30.785Z,91.52
2022-09-23T05:40:30.793Z,91.77
2022-09-23T05:41:30.744Z,91.26
2022-09-23T05:42:30.736Z,91.46
2022-09-23T05:43:30.775Z,91.82
2022-09-23T05:44:30.728Z,91.77
2022-09-23T05:45:30.719Z,92.19
2022-09-23T05:46:30.810Z,92.08
2022-09-23T05:47:30.692Z,92.08
2022-09-23T05:48:30.678Z,91.73
2022-09-23T05:49:55.336Z,91.67
2022-09-23T05:50:32.659Z,91.22
2022-09-23T05:51:31.344Z,90.91
2022-09-23T05:52:31.643Z,90.19
2022-09-23T05:53:30.639Z,89.87
2022-09-23T05:54:30.625Z,89.87
2022-09-23T05:55:30.622Z,90.12
2022-09-23T05:56:30.626Z,90.22
2022-09-23T05:57:30.594Z,90.33
2022-09-23T05:58:30.587Z,91.01
2022-09-23T05:59:30.573Z,91.16
2022-09-23T06:00:30.558Z,90.22
2022-09-23T06:01:30.581Z,90.33
2022-09-23T06:02:30.598Z,90.59
2022-09-23T06:03:30.545Z,90.53
2022-09-23T06:04:30.530Z,90.53
2022-09-23T06:05:30.525Z,90.22
2022-09-23T06:06:30.549Z,90.84
2022-09-23T06:07:30.510Z,90.74
2022-09-23T06:08:30.487Z,90.33
2022-09-23T06:09:35.622Z,91.20
2022-09-23T06:10:32.469Z,91.50
2022-09-23T06:11:30.481Z,91.30
2022-09-23T06:12:30.456Z,91.82
2022-09-23T06:13:30.446Z,91.56
2022-09-23T06:14:30.445Z,91.26
2022-09-23T06:15:30.417Z,92.08
2022-09-23T06:16:30.536Z,91.88
2022-09-23T06:17:30.405Z,91.73
2022-09-23T06:18:30.396Z,91.11
2022-09-23T06:19:30.378Z,91.01
2022-09-23T06:20:30.382Z,90.80
2022-09-23T06:21:30.383Z,90.80
2022-09-23T06:22:30.357Z,89.87
2022-09-23T06:23:30.342Z,90.59
2022-09-23T06:24:31.549Z,90.91
2022-09-23T06:25:31.316Z,90.28
2022-09-23T06:26:31.335Z,90.19
2022-09-23T06:27:30.307Z,89.77
2022-09-23T06:28:30.304Z,89.73
2022-09-23T06:29:30.312Z,89.87
2022-09-23T06:30:30.288Z,89.15
2022-09-23T06:31:30.365Z,89.52
2022-09-23T06:32:30.256Z,89.62
2022-09-23T06:33:36.830Z,89.52
2022-09-23T06:34:43.383Z,89.11
2022-09-23T06:35:31.231Z,89.01
2022-09-23T06:36:40.551Z,88.08
2022-09-23T06:37:32.208Z,88.04
2022-09-23T06:38:30.217Z,87.83
2022-09-23T06:39:30.185Z,87.21
2022-09-23T06:40:30.222Z,87.71
2022-09-23T06:41:30.169Z,87.77
2022-09-23T06:42:30.197Z,87.56
2022-09-23T06:43:30.177Z,87.42
2022-09-23T06:44:30.139Z,86.60
2022-09-23T06:45:30.139Z,87.52
2022-09-23T06:46:30.199Z,87.42
2022-09-23T06:47:30.127Z,87.48
2022-09-23T06:48:30.128Z,87.27
2022-09-23T06:49:30.094Z,87.48
2022-09-23T06:50:30.081Z,87.38
2022-09-23T06:51:30.099Z,87.03
2022-09-23T06:52:30.070Z,86.31
2022-09-23T06:53:30.057Z,86.00
2022-09-23T06:54:30.047Z,86.52
2022-09-23T06:55:30.053Z,86.10
2022-09-23T06:56:32.550Z,86.55
2022-09-23T06:57:30.013Z,87.34
2022-09-23T06:58:30.023Z,87.03
2022-09-23T06:59:29.986Z,86.66
2022-09-23T07:00:30.980Z,86.31
2022-09-23T07:01:30.078Z,85.79
2022-09-23T07:02:30.176Z,86.61
2022-09-23T07:03:29.970Z,87.03
2022-09-23T07:04:29.948Z,86.21
2022-09-23T07:05:29.929Z,86.31
2022-09-23T07:06:29.925Z,86.61
2022-09-23T07:07:29.930Z,86.21
2022-09-23T07:08:29.928Z,86.82
2022-09-23T07:09:29.913Z,86.99
2022-09-23T07:10:29.883Z,86.88
2022-09-23T07:11:29.931Z,86.37
2022-09-23T07:12:29.869Z,86.52
2022-09-23T07:13:29.848Z,86.58
2022-09-23T07:14:29.847Z,86.16
2022-09-23T07:15:29.843Z,86.88
2022-09-23T07:16:29.951Z,86.13
2022-09-23T07:17:29.819Z,86.23
2022-09-23T07:18:34.264Z,85.30
2022-09-23T07:19:31.813Z,84.89
2022-09-23T07:20:29.817Z,83.92
2022-09-23T07:21:29.785Z,84.44
2022-09-23T07:22:29.764Z,84.13
2022-09-23T07:23:29.787Z,84.34
2022-09-23T07:24:29.755Z,84.23
2022-09-23T07:25:29.737Z,84.64
2022-09-23T07:26:29.738Z,83.86
2022-09-23T07:27:29.718Z,84.48
2022-09-23T07:28:29.742Z,84.44
2022-09-23T07:29:37.243Z,84.64
2022-09-23T07:30:30.697Z,84.20
2022-09-23T07:31:38.344Z,84.61
2022-09-23T07:32:44.077Z,83.75
2022-09-23T07:33:32.728Z,83.33
2022-09-23T07:34:30.675Z,83.68
2022-09-23T07:35:29.645Z,83.64
2022-09-23T07:36:29.646Z,83.23
2022-09-23T07:37:29.630Z,83.27
2022-09-23T07:38:29.617Z,82.92
2022-09-23T07:39:29.627Z,83.13
2022-09-23T07:40:29.679Z,82.92
2022-09-23T07:41:29.588Z,83.44
2022-09-23T07:42:29.581Z,83.19
2022-09-23T07:43:29.604Z,82.89
2022-09-23T07:44:29.566Z,82.95
2022-09-23T07:45:29.546Z,82.13
2022-09-23T07:46:29.653Z,81.86
2022-09-23T07:47:29.529Z,81.41
2022-09-23T07:48:33.883Z,81.10
2022-09-23T07:49:29.517Z,81.30
2022-09-23T07:50:29.509Z,80.76
2022-09-23T07:51:34.737Z,80.24
2022-09-23T07:52:30.494Z,79.66
2022-09-23T07:53:29.475Z,79.41
2022-09-23T07:54:29.492Z,78.90
2022-09-23T07:55:29.460Z,78.53
2022-09-23T07:56:29.443Z,79.93
2022-09-23T07:58:01.336Z,79.41
2022-09-23T07:58:29.460Z,79.31
2022-09-23T07:59:29.450Z,78.90
2022-09-23T08:00:29.416Z,78.80
2022-09-23T08:01:29.568Z,79.89
2022-09-23T08:02:29.442Z,78.66
2022-09-23T08:03:29.375Z,78.08
2022-09-23T08:04:29.379Z,76.47
2022-09-23T08:05:29.365Z,76.74
2022-09-23T08:06:29.368Z,74.83
2022-09-23T08:07:29.338Z,74.96
2022-09-23T08:08:29.337Z,72.55
2022-09-23T08:09:29.337Z,71.19
2022-09-23T08:10:29.335Z,70.34
2022-09-23T08:11:29.345Z,68.21
2022-09-23T08:12:29.284Z,68.04
2022-09-23T08:13:29.294Z,68.85
2022-09-23T08:14:29.298Z,69.73
2022-09-23T08:15:29.324Z,69.29
2022-09-23T08:16:29.321Z,67.94
2022-09-23T08:17:29.234Z,67.91
2022-09-23T08:18:29.239Z,67.57
2022-09-23T08:19:29.280Z,63.65
2022-09-23T08:20:29.287Z,64.03
2022-09-23T08:21:29.226Z,64.06
2022-09-23T08:22:29.247Z,64.13
2022-09-23T08:23:29.223Z,63.08
2022-09-23T08:24:29.214Z,62.98
2022-09-23T08:25:31.976Z,63.76
2022-09-23T08:26:29.154Z,62.24
2022-09-23T08:27:29.222Z,63.15
2022-09-23T08:28:29.132Z,61.33
2022-09-23T08:29:29.147Z,63.02
2022-09-23T08:30:29.168Z,62.41
2022-09-23T08:31:29.131Z,62.14
2022-09-23T08:32:29.092Z,62.71
2022-09-23T08:33:29.126Z,63.62
2022-09-23T08:34:29.097Z,63.52
2022-09-23T08:35:29.080Z,64.00
2022-09-23T08:36:29.059Z,63.06
2022-09-23T08:37:29.078Z,63.46
2022-09-23T08:38:29.087Z,63.12
2022-09-23T08:39:29.046Z,62.99
2022-09-23T08:40:29.064Z,61.43
2022-09-23T08:41:29.134Z,63.02
2022-09-23T08:42:29.014Z,61.58
2022-09-23T08:43:28.999Z,60.72
2022-09-23T08:44:29.048Z,61.13
2022-09-23T08:45:28.971Z,61.74
2022-09-23T08:46:29.008Z,62.48
2022-09-23T08:47:28.946Z,63.93
2022-09-23T08:48:28.955Z,61.68
2022-09-23T08:49:29.128Z,61.37
2022-09-23T08:50:28.943Z,61.65
2022-09-23T08:51:28.958Z,61.65
2022-09-23T08:52:28.904Z,60.98
2022-09-23T08:53:28.887Z,60.17
2022-09-23T08:54:28.875Z,59.74
2022-09-23T08:55:28.861Z,59.34
2022-09-23T08:56:28.980Z,58.23
2022-09-23T08:57:28.971Z,59.74
2022-09-23T08:58:29.640Z,57.18
2022-09-23T08:59:28.861Z,57.89
2022-09-23T09:00:28.805Z,57.79
2022-09-23T09:01:28.820Z,58.58
2022-09-23T09:02:28.832Z,58.67
2022-09-23T09:03:28.793Z,58.70
2022-09-23T09:04:28.791Z,58.70
2022-09-23T09:05:28.852Z,58.95
2022-09-23T09:06:28.767Z,58.47
2022-09-23T09:07:37.426Z,58.58
2022-09-23T09:08:30.810Z,57.56
2022-09-23T09:09:28.738Z,57.69
2022-09-23T09:10:28.716Z,58.58
2022-09-23T09:11:28.726Z,58.75
2022-09-23T09:12:28.718Z,58.52
2022-09-23T09:13:28.677Z,57.94
2022-09-23T09:14:29.705Z,59.60
2022-09-23T09:15:28.779Z,59.02
2022-09-23T09:16:55.625Z,57.58
2022-09-23T09:17:34.397Z,57.15
2022-09-23T09:18:29.651Z,56.45
2022-09-23T09:19:28.636Z,56.37
2022-09-23T09:20:28.645Z,56.60
2022-09-23T09:21:28.634Z,57.14
2022-09-23T09:22:28.612Z,57.34
2022-09-23T09:23:28.616Z,57.91
2022-09-23T09:24:28.591Z,57.38
2022-09-23T09:25:33.433Z,57.03
2022-09-23T09:26:30.597Z,56.72
2022-09-23T09:27:28.597Z,57.63
2022-09-23T09:28:28.575Z,57.93
2022-09-23T09:29:35.464Z,57.76
2022-09-23T09:30:29.534Z,58.09
2022-09-23T09:31:28.578Z,57.45
2022-09-23T09:32:28.509Z,56.68
2022-09-23T09:33:28.516Z,58.04
2022-09-23T09:34:28.521Z,57.76
2022-09-23T09:35:28.563Z,57.49
2022-09-23T09:36:30.855Z,57.76
2022-09-23T09:37:28.465Z,58.75
2022-09-23T09:38:28.440Z,58.95
2022-09-23T09:39:29.458Z,58.22
2022-09-23T09:40:28.494Z,57.94
2022-09-23T09:41:28.441Z,57.26
2022-09-23T09:42:28.466Z,58.47
2022-09-23T09:43:28.400Z,59.96
2022-09-23T09:44:28.435Z,58.40
2022-09-23T09:45:28.369Z,59.18
2022-09-23T09:46:28.435Z,59.08
2022-09-23T09:47:28.379Z,58.04
2022-09-23T09:48:28.359Z,56.43
2022-09-23T09:49:28.449Z,56.83
2022-09-23T09:50:28.365Z,57.34
2022-09-23T09:51:28.335Z,56.83
2022-09-23T09:52:28.301Z,57.71
2022-09-23T09:53:28.258Z,58.42
2022-09-23T09:54:28.241Z,57.38
2022-09-23T09:55:28.244Z,56.98
2022-09-23T09:56:28.220Z,55.94
2022-09-23T09:57:32.163Z,57.93
2022-09-23T09:58:28.200Z,57.81
2022-09-23T09:59:28.220Z,56.42
2022-09-23T10:00:28.182Z,55.82
2022-09-23T10:01:28.283Z,56.37
2022-09-23T10:02:28.173Z,56.24
2022-09-23T10:03:29.189Z,56.17
2022-09-23T10:04:28.207Z,57.98
2022-09-23T10:05:28.144Z,57.89
2022-09-23T10:06:28.148Z,57.89
2022-09-23T10:07:28.102Z,57.38
2022-09-23T10:08:28.116Z,56.68
2022-09-23T10:09:28.082Z,57.98
2022-09-23T10:10:32.862Z,56.68
2022-09-23T10:11:29.070Z,56.68
2022-09-23T10:12:28.287Z,57.98
2022-09-23T10:13:28.049Z,57.35
2022-09-23T10:14:28.039Z,56.37
2022-09-23T10:15:28.051Z,57.86
2022-09-23T10:16:28.050Z,59.37
2022-09-23T10:17:28.041Z,55.91
2022-09-23T10:18:27.993Z,59.04
2022-09-23T10:19:28.002Z,57.03
2022-09-23T10:20:28.004Z,57.30
2022-09-23T10:21:28.217Z,56.97
2022-09-23T10:22:28.952Z,55.99
2022-09-23T10:23:27.965Z,56.47
2022-09-23T10:24:27.937Z,55.56
2022-09-23T10:25:27.934Z,56.27
2022-09-23T10:26:27.966Z,54.73
2022-09-23T10:27:27.919Z,56.14
2022-09-23T10:28:27.892Z,54.15
2022-09-23T10:29:27.904Z,54.75
2022-09-23T10:30:27.982Z,56.27
2022-09-23T10:31:27.884Z,56.27
2022-09-23T10:32:27.876Z,55.56
2022-09-23T10:33:27.865Z,56.07
2022-09-23T10:34:27.848Z,55.54
2022-09-23T10:35:27.841Z,55.54
2022-09-23T10:36:28.009Z,53.52
2022-09-23T10:37:27.812Z,56.84
2022-09-23T10:38:27.802Z,55.00
2022-09-23T10:39:27.852Z,55.41
2022-09-23T10:40:27.859Z,54.80
2022-09-23T10:41:27.788Z,53.90
2022-09-23T10:42:27.765Z,55.71
2022-09-23T10:43:27.769Z,53.80
2022-09-23T10:44:27.748Z,53.60
2022-09-23T10:45:27.749Z,54.30
2022-09-23T10:46:27.768Z,53.50
2022-09-23T10:47:27.721Z,53.50
2022-09-23T10:48:27.706Z,54.60
2022-09-23T10:49:27.699Z,54.10
2022-09-23T10:50:27.707Z,53.83
2022-09-23T10:51:27.689Z,55.13
2022-09-23T10:52:27.681Z,55.26
2022-09-23T10:53:27.772Z,54.75
2022-09-23T10:54:27.670Z,55.26
2022-09-23T10:55:27.654Z,55.03
2022-09-23T10:56:27.654Z,54.10
2022-09-23T10:57:27.647Z,53.72
2022-09-23T10:58:27.639Z,53.92
2022-09-23T10:59:27.605Z,53.92
2022-09-23T11:00:27.602Z,55.11
2022-09-23T11:01:27.669Z,54.60
2022-09-23T11:02:27.593Z,53.12
2022-09-23T11:03:27.588Z,53.83
2022-09-23T11:04:28.711Z,54.13
2022-09-23T11:05:27.556Z,53.42
2022-09-23T11:06:27.544Z,52.11
2022-09-23T11:07:27.672Z,51.91
2022-09-23T11:08:27.529Z,54.63
2022-09-23T11:09:27.541Z,53.50
2022-09-23T11:10:45.452Z,52.92
2022-09-23T11:11:29.517Z,51.68
2022-09-23T11:12:27.491Z,52.09
2022-09-23T11:13:27.479Z,51.79
2022-09-23T11:14:27.478Z,51.59
2022-09-23T11:15:27.461Z,52.89
2022-09-23T11:16:27.593Z,51.99
2022-09-23T11:17:27.437Z,52.67
2022-09-23T11:18:27.440Z,50.96
2022-09-23T11:19:27.424Z,49.76
2022-09-23T11:20:27.426Z,50.84
2022-09-23T11:21:27.432Z,51.04
2022-09-23T11:22:27.387Z,50.84
2022-09-23T11:23:27.397Z,49.30
2022-09-23T11:24:27.386Z,47.52
2022-09-23T11:25:27.367Z,49.43
2022-09-23T11:26:32.249Z,48.43
2022-09-23T11:27:28.356Z,48.75
2022-09-23T11:28:27.336Z,49.02
2022-09-23T11:29:27.354Z,50.41
2022-09-23T11:30:27.358Z,48.10
2022-09-23T11:31:27.327Z,47.12
2022-09-23T11:32:27.297Z,47.32
2022-09-23T11:33:27.289Z,47.52
2022-09-23T11:34:27.301Z,47.12
2022-09-23T11:35:27.298Z,47.82
2022-09-23T11:36:27.275Z,48.02
2022-09-23T11:37:27.271Z,46.81
2022-09-23T11:38:27.236Z,47.32
2022-09-23T11:39:27.250Z,46.31
2022-09-23T11:40:27.337Z,46.61
2022-09-23T11:41:27.210Z,47.39
2022-09-23T11:42:27.194Z,47.39
2022-09-23T11:43:27.183Z,47.80
2022-09-23T11:44:27.179Z,47.02
2022-09-23T11:45:27.190Z,47.42
2022-09-23T11:46:27.216Z,47.02
2022-09-23T11:47:27.140Z,48.43
2022-09-23T11:48:27.133Z,47.62
2022-09-23T11:49:27.153Z,48.44
2022-09-23T11:50:27.121Z,48.93
2022-09-23T11:51:27.107Z,48.75
2022-09-23T11:52:27.111Z,49.05
2022-09-23T11:53:27.099Z,48.95
2022-09-23T11:54:27.097Z,48.95
2022-09-23T11:55:27.079Z,48.65
2022-09-23T11:56:34.882Z,46.94
2022-09-23T11:57:30.485Z,48.35
2022-09-23T11:58:27.121Z,46.94
2022-09-23T11:59:36.858Z,47.04
2022-09-23T12:00:29.044Z,46.44
2022-09-23T12:01:35.037Z,47.34
2022-09-23T12:02:31.121Z,47.44
2022-09-23T12:03:40.517Z,47.34
2022-09-23T12:04:28.387Z,47.14
2022-09-23T12:05:27.113Z,46.23
2022-09-23T12:06:26.966Z,47.34
2022-09-23T12:07:26.970Z,48.22
2022-09-23T12:08:26.968Z,46.34
2022-09-23T12:09:47.165Z,45.94
2022-09-23T12:10:28.945Z,47.44
2022-09-23T12:11:26.929Z,46.23
2022-09-23T12:12:27.327Z,46.94
2022-09-23T12:13:27.886Z,46.84
2022-09-23T12:14:26.886Z,46.46
2022-09-23T12:15:26.895Z,46.26
2022-09-23T12:16:26.910Z,45.75
2022-09-23T12:17:26.918Z,47.64
2022-09-23T12:18:26.993Z,47.14
2022-09-23T12:19:26.838Z,48.02
2022-09-23T12:20:26.828Z,48.52
2022-09-23T12:21:49.265Z,46.09
2022-09-23T12:22:28.840Z,48.08
2022-09-23T12:23:26.820Z,47.05
2022-09-23T12:24:26.805Z,45.87
2022-09-23T12:25:26.804Z,47.15
2022-09-23T12:26:26.776Z,46.37
2022-09-23T12:27:26.769Z,46.39
2022-09-23T12:28:26.773Z,45.09
2022-09-23T12:29:26.747Z,45.79
2022-09-23T12:30:26.763Z,46.89
2022-09-23T12:31:26.730Z,47.02
2022-09-23T12:32:26.710Z,46.11
2022-09-23T12:33:26.703Z,47.12
2022-09-23T12:34:26.702Z,45.71
2022-09-23T12:35:26.716Z,47.09
2022-09-23T12:36:26.680Z,45.41
2022-09-23T12:37:26.674Z,45.81
2022-09-23T12:38:26.657Z,45.71
2022-09-23T12:39:26.648Z,46.11
2022-09-23T12:40:26.677Z,46.80
2022-09-23T12:41:26.625Z,46.81
2022-09-23T12:42:30.798Z,47.00
2022-09-23T12:43:27.611Z,46.69
2022-09-23T12:44:26.619Z,47.30
2022-09-23T12:45:26.595Z,46.97
2022-09-23T12:46:26.576Z,47.47
2022-09-23T12:47:26.589Z,46.07
2022-09-23T12:48:26.560Z,45.67
2022-09-23T12:49:26.543Z,45.97
2022-09-23T12:50:26.542Z,45.77
2022-09-23T12:51:26.545Z,45.57
2022-09-23T12:52:26.533Z,46.07